FTI YMLT-YMHB
Flight info
| Callsign | FTI |
|---|---|
| Flight time | N/A |
| Altitude | 3000 |
| Route | CCTS |
| Aircraft | PA38/L-SFG/C |
Departure
| Time | 2026-04-17 11:26 |
|---|---|
| Airport | Launceston Airport (YMLT) |
Arrival
| Time | N/A |
|---|---|
| Airport | Hobart International Airport (YMHB) |
| Time | Latitude | Longitude | Altitude | Speed | Heading |
|---|---|---|---|---|---|
| 2026-04-17 11:22 | -41.54764 | 147.20997 | 576 ft | 0 kts | 143° |
| 2026-04-17 11:23 | -41.54783 | 147.21012 | 576 ft | 12 kts | 138° |
| 2026-04-17 11:23 | -41.54883 | 147.21132 | 576 ft | 23 kts | 155° |
| 2026-04-17 11:23 | -41.54966 | 147.21245 | 574 ft | 19 kts | 73° |
| 2026-04-17 11:23 | -41.55049 | 147.21372 | 578 ft | 23 kts | 142° |
| 2026-04-17 11:24 | -41.55199 | 147.21502 | 582 ft | 24 kts | 147° |
| 2026-04-17 11:24 | -41.55227 | 147.21542 | 582 ft | 0 kts | 120° |
| 2026-04-17 11:25 | -41.55228 | 147.21571 | 583 ft | 13 kts | 86° |
| 2026-04-17 11:25 | -41.55191 | 147.21692 | 586 ft | 8 kts | 324° |
| 2026-04-17 11:26 | -41.54952 | 147.21483 | 596 ft | 69 kts | 321° |
| 2026-04-17 11:26 | -41.54495 | 147.21090 | 799 ft | 80 kts | 323° |
| 2026-04-17 11:26 | -41.54039 | 147.20703 | 1092 ft | 79 kts | 322° |
| 2026-04-17 11:26 | -41.53772 | 147.20129 | 1427 ft | 71 kts | 264° |
| 2026-04-17 11:27 | -41.54023 | 147.19476 | 1469 ft | 88 kts | 231° |
| 2026-04-17 11:27 | -41.54395 | 147.18820 | 1508 ft | 87 kts | 230° |
| 2026-04-17 11:27 | -41.54930 | 147.18753 | 1522 ft | 91 kts | 146° |
| 2026-04-17 11:27 | -41.55430 | 147.19302 | 1505 ft | 94 kts | 145° |
| 2026-04-17 11:28 | -41.55938 | 147.19837 | 1524 ft | 92 kts | 146° |
| 2026-04-17 11:28 | -41.56453 | 147.20354 | 1508 ft | 89 kts | 147° |
| 2026-04-17 11:28 | -41.56916 | 147.20836 | 1453 ft | 80 kts | 146° |
| 2026-04-17 11:28 | -41.57145 | 147.21430 | 1440 ft | 80 kts | 79° |
| 2026-04-17 11:29 | -41.56862 | 147.22101 | 1299 ft | 82 kts | 63° |
| 2026-04-17 11:29 | -41.56579 | 147.22753 | 1184 ft | 83 kts | 45° |
| 2026-04-17 11:29 | -41.56134 | 147.22536 | 1005 ft | 74 kts | 318° |
| 2026-04-17 11:29 | -41.55708 | 147.22144 | 791 ft | 75 kts | 322° |
| 2026-04-17 11:30 | -41.55292 | 147.21777 | 649 ft | 72 kts | 321° |
| 2026-04-17 11:30 | -41.54897 | 147.21438 | 586 ft | 54 kts | 321° |
| 2026-04-17 11:30 | -41.54564 | 147.21166 | 615 ft | 72 kts | 323° |
| 2026-04-17 11:30 | -41.54142 | 147.20783 | 894 ft | 71 kts | 321° |
| 2026-04-17 11:31 | -41.53723 | 147.20404 | 1161 ft | 75 kts | 321° |
| 2026-04-17 11:31 | -41.53609 | 147.19851 | 1421 ft | 68 kts | 239° |
| 2026-04-17 11:31 | -41.53910 | 147.19262 | 1461 ft | 88 kts | 234° |
| 2026-04-17 11:31 | -41.54246 | 147.18550 | 1493 ft | 90 kts | 238° |
| 2026-04-17 11:32 | -41.54639 | 147.18441 | 1632 ft | 82 kts | 134° |
| 2026-04-17 11:32 | -41.55093 | 147.19064 | 1552 ft | 99 kts | 139° |
| 2026-04-17 11:32 | -41.55609 | 147.19682 | 1491 ft | 97 kts | 145° |
| 2026-04-17 11:32 | -41.56133 | 147.20225 | 1469 ft | 93 kts | 146° |
| 2026-04-17 11:33 | -41.56615 | 147.20731 | 1404 ft | 83 kts | 145° |
| 2026-04-17 11:33 | -41.57058 | 147.21189 | 1377 ft | 75 kts | 138° |
| 2026-04-17 11:33 | -41.57049 | 147.21898 | 1349 ft | 88 kts | 58° |
| 2026-04-17 11:33 | -41.56699 | 147.22594 | 1225 ft | 89 kts | 62° |
| 2026-04-17 11:34 | -41.56232 | 147.22624 | 1050 ft | 90 kts | 320° |
| 2026-04-17 11:34 | -41.55746 | 147.22174 | 871 ft | 81 kts | 322° |
| 2026-04-17 11:34 | -41.55275 | 147.21762 | 658 ft | 83 kts | 322° |
| 2026-04-17 11:34 | -41.54828 | 147.21378 | 586 ft | 65 kts | 322° |
| 2026-04-17 11:35 | -41.54438 | 147.21037 | 655 ft | 78 kts | 322° |
| 2026-04-17 11:35 | -41.53967 | 147.20635 | 910 ft | 81 kts | 321° |
| 2026-04-17 11:35 | -41.53574 | 147.20203 | 1215 ft | 70 kts | 286° |
| 2026-04-17 11:35 | -41.53705 | 147.19608 | 1470 ft | 69 kts | 235° |
| 2026-04-17 11:36 | -41.54025 | 147.18998 | 1484 ft | 90 kts | 231° |
| 2026-04-17 11:36 | -41.54563 | 147.18795 | 1509 ft | 93 kts | 149° |
| 2026-04-17 11:36 | -41.55105 | 147.19290 | 1481 ft | 97 kts | 148° |
| 2026-04-17 11:36 | -41.55671 | 147.19813 | 1420 ft | 100 kts | 147° |
| 2026-04-17 11:37 | -41.56228 | 147.20343 | 1340 ft | 91 kts | 145° |
| 2026-04-17 11:37 | -41.56666 | 147.20814 | 1325 ft | 74 kts | 144° |
| 2026-04-17 11:37 | -41.57060 | 147.21251 | 1262 ft | 78 kts | 143° |
| 2026-04-17 11:37 | -41.57357 | 147.21877 | 1221 ft | 85 kts | 81° |
| 2026-04-17 11:38 | -41.57033 | 147.22532 | 1179 ft | 87 kts | 51° |
| 2026-04-17 11:38 | -41.56559 | 147.22951 | 1141 ft | 82 kts | 340° |
| 2026-04-17 11:38 | -41.56098 | 147.22489 | 972 ft | 80 kts | 321° |
| 2026-04-17 11:38 | -41.55632 | 147.22080 | 782 ft | 81 kts | 322° |
| 2026-04-17 11:39 | -41.55165 | 147.21668 | 626 ft | 79 kts | 323° |
| 2026-04-17 11:39 | -41.54758 | 147.21320 | 585 ft | 61 kts | 321° |
| 2026-04-17 11:39 | -41.54444 | 147.21050 | 589 ft | 55 kts | 327° |
| 2026-04-17 11:39 | -41.54049 | 147.20705 | 752 ft | 73 kts | 321° |
| 2026-04-17 11:40 | -41.53632 | 147.20326 | 1042 ft | 71 kts | 318° |
| 2026-04-17 11:40 | -41.53517 | 147.19758 | 1332 ft | 64 kts | 245° |
| 2026-04-17 11:40 | -41.53702 | 147.19152 | 1474 ft | 81 kts | 242° |
| 2026-04-17 11:40 | -41.53995 | 147.18494 | 1566 ft | 82 kts | 214° |
| 2026-04-17 11:41 | -41.54506 | 147.18744 | 1612 ft | 88 kts | 149° |
| 2026-04-17 11:41 | -41.55015 | 147.19236 | 1630 ft | 92 kts | 145° |
| 2026-04-17 11:41 | -41.55514 | 147.19781 | 1618 ft | 93 kts | 142° |
| 2026-04-17 11:41 | -41.55991 | 147.20366 | 1589 ft | 93 kts | 141° |
| 2026-04-17 11:42 | -41.56455 | 147.20898 | 1561 ft | 83 kts | 142° |
| 2026-04-17 11:42 | -41.56863 | 147.21407 | 1496 ft | 75 kts | 130° |
| 2026-04-17 11:42 | -41.56795 | 147.22149 | 1353 ft | 92 kts | 64° |
| 2026-04-17 11:42 | -41.56471 | 147.22867 | 1217 ft | 92 kts | 30° |
| 2026-04-17 11:43 | -41.56016 | 147.22462 | 961 ft | 83 kts | 309° |
| 2026-04-17 11:43 | -41.55548 | 147.21998 | 762 ft | 78 kts | 322° |
| 2026-04-17 11:43 | -41.55118 | 147.21643 | 982 ft | 74 kts | 323° |
| 2026-04-17 11:43 | -41.54677 | 147.21274 | 1260 ft | 77 kts | 323° |
| 2026-04-17 11:44 | -41.54222 | 147.20866 | 1497 ft | 84 kts | 321° |
| 2026-04-17 11:44 | -41.53682 | 147.20392 | 1549 ft | 93 kts | 325° |
| 2026-04-17 11:44 | -41.53417 | 147.19729 | 1657 ft | 83 kts | 251° |
| 2026-04-17 11:44 | -41.53731 | 147.19078 | 1683 ft | 84 kts | 232° |
| 2026-04-17 11:45 | -41.54198 | 147.18681 | 1676 ft | 88 kts | 167° |
| 2026-04-17 11:45 | -41.54736 | 147.19051 | 1683 ft | 82 kts | 147° |
| 2026-04-17 11:45 | -41.55137 | 147.19555 | 1663 ft | 84 kts | 137° |
| 2026-04-17 11:45 | -41.55597 | 147.20062 | 1597 ft | 81 kts | 146° |
| 2026-04-17 11:46 | -41.55967 | 147.20536 | 1406 ft | 72 kts | 133° |
| 2026-04-17 11:46 | -41.56015 | 147.20952 | 1310 ft | 70 kts | 72° |
| 2026-04-17 11:46 | -41.55645 | 147.21716 | 997 ft | 76 kts | 59° |
| 2026-04-17 11:46 | -41.55200 | 147.21703 | 695 ft | 71 kts | 322° |
| 2026-04-17 11:47 | -41.54939 | 147.21473 | 586 ft | 59 kts | 322° |
| 2026-04-17 11:47 | -41.54602 | 147.21203 | 597 ft | 72 kts | 326° |
| 2026-04-17 11:47 | -41.54155 | 147.20830 | 828 ft | 76 kts | 324° |
| 2026-04-17 11:47 | -41.53702 | 147.20486 | 1090 ft | 78 kts | 327° |
| 2026-04-17 11:48 | -41.53241 | 147.20122 | 1191 ft | 76 kts | 323° |
| 2026-04-17 11:48 | -41.52759 | 147.19864 | 986 ft | 75 kts | 347° |
| 2026-04-17 11:48 | -41.52118 | 147.19780 | 673 ft | 69 kts | 334° |
| 2026-04-17 11:48 | -41.51802 | 147.19380 | 833 ft | 64 kts | 306° |
| 2026-04-17 11:49 | -41.51603 | 147.19084 | 996 ft | 65 kts | 306° |
| 2026-04-17 11:49 | -41.51314 | 147.18635 | 1218 ft | 65 kts | 295° |
| 2026-04-17 11:49 | -41.51407 | 147.18092 | 1421 ft | 67 kts | 232° |
| 2026-04-17 11:49 | -41.51733 | 147.17572 | 1552 ft | 81 kts | 227° |
| 2026-04-17 11:50 | -41.52152 | 147.17093 | 1654 ft | 79 kts | 194° |
| 2026-04-17 11:50 | -41.52690 | 147.17325 | 1689 ft | 89 kts | 155° |
| 2026-04-17 11:50 | -41.53245 | 147.17741 | 1680 ft | 93 kts | 154° |
| 2026-04-17 11:50 | -41.53810 | 147.18202 | 1647 ft | 97 kts | 152° |
| 2026-04-17 11:51 | -41.54402 | 147.18691 | 1543 ft | 98 kts | 152° |
| 2026-04-17 11:51 | -41.54982 | 147.19161 | 1518 ft | 97 kts | 150° |
| 2026-04-17 11:51 | -41.55530 | 147.19672 | 1515 ft | 95 kts | 146° |
| 2026-04-17 11:51 | -41.56055 | 147.20144 | 1549 ft | 85 kts | 150° |
| 2026-04-17 11:52 | -41.56531 | 147.20587 | 1503 ft | 81 kts | 148° |
| 2026-04-17 11:52 | -41.56967 | 147.21045 | 1473 ft | 80 kts | 128° |
| 2026-04-17 11:52 | -41.56879 | 147.21760 | 1427 ft | 82 kts | 69° |
| 2026-04-17 11:52 | -41.56650 | 147.22460 | 1324 ft | 83 kts | 68° |
| 2026-04-17 11:53 | -41.56322 | 147.22716 | 1114 ft | 75 kts | 309° |
| 2026-04-17 11:53 | -41.55910 | 147.22314 | 910 ft | 70 kts | 325° |
| 2026-04-17 11:53 | -41.55491 | 147.21953 | 725 ft | 71 kts | 321° |
| 2026-04-17 11:53 | -41.55083 | 147.21599 | 591 ft | 64 kts | 322° |
| 2026-04-17 11:54 | -41.54757 | 147.21320 | 593 ft | 65 kts | 323° |
| 2026-04-17 11:54 | -41.54338 | 147.20980 | 809 ft | 74 kts | 322° |
| 2026-04-17 11:54 | -41.53935 | 147.20580 | 1104 ft | 72 kts | 316° |
| 2026-04-17 11:54 | -41.53760 | 147.19996 | 1317 ft | 75 kts | 253° |
| 2026-04-17 11:55 | -41.54022 | 147.19377 | 1513 ft | 82 kts | 233° |
| 2026-04-17 11:55 | -41.54414 | 147.18762 | 1538 ft | 89 kts | 204° |
| 2026-04-17 11:55 | -41.54946 | 147.19126 | 1519 ft | 91 kts | 146° |
| 2026-04-17 11:55 | -41.55442 | 147.19603 | 1530 ft | 86 kts | 149° |
| 2026-04-17 11:56 | -41.55918 | 147.20045 | 1547 ft | 82 kts | 149° |
| 2026-04-17 11:56 | -41.56381 | 147.20479 | 1580 ft | 82 kts | 149° |
| 2026-04-17 11:56 | -41.56866 | 147.20878 | 1612 ft | 80 kts | 153° |
| 2026-04-17 11:56 | -41.57346 | 147.21259 | 1639 ft | 80 kts | 153° |
| 2026-04-17 11:57 | -41.57838 | 147.21593 | 1670 ft | 79 kts | 157° |
| 2026-04-17 11:57 | -41.58305 | 147.21963 | 1710 ft | 78 kts | 147° |
| 2026-04-17 11:57 | -41.58573 | 147.22572 | 1713 ft | 87 kts | 91° |
| 2026-04-17 11:57 | -41.58313 | 147.23305 | 1638 ft | 87 kts | 62° |
| 2026-04-17 11:58 | -41.58008 | 147.23970 | 1567 ft | 83 kts | 58° |
| 2026-04-17 11:58 | -41.57637 | 147.24041 | 1418 ft | 79 kts | 301° |
| 2026-04-17 11:58 | -41.57280 | 147.23502 | 1240 ft | 76 kts | 315° |
| 2026-04-17 11:58 | -41.56846 | 147.23130 | 1120 ft | 74 kts | 324° |
| 2026-04-17 11:59 | -41.56420 | 147.22764 | 1017 ft | 73 kts | 322° |
| 2026-04-17 11:59 | -41.55995 | 147.22394 | 911 ft | 75 kts | 321° |
| 2026-04-17 11:59 | -41.55551 | 147.22004 | 760 ft | 76 kts | 322° |
| 2026-04-17 11:59 | -41.55111 | 147.21623 | 607 ft | 73 kts | 322° |
| 2026-04-17 12:00 | -41.54770 | 147.21323 | 584 ft | 58 kts | 320° |
| 2026-04-17 12:00 | -41.54362 | 147.20982 | 775 ft | 73 kts | 323° |
| 2026-04-17 12:00 | -41.53936 | 147.20608 | 1062 ft | 71 kts | 323° |
| 2026-04-17 12:00 | -41.53702 | 147.20089 | 1271 ft | 73 kts | 253° |
| 2026-04-17 12:01 | -41.53967 | 147.19517 | 1503 ft | 80 kts | 231° |
| 2026-04-17 12:01 | -41.54343 | 147.18904 | 1544 ft | 89 kts | 222° |
| 2026-04-17 12:01 | -41.54854 | 147.19118 | 1536 ft | 91 kts | 141° |
| 2026-04-17 12:01 | -41.55364 | 147.19608 | 1559 ft | 91 kts | 151° |
| 2026-04-17 12:02 | -41.55900 | 147.20083 | 1550 ft | 92 kts | 149° |
| 2026-04-17 12:02 | -41.56411 | 147.20554 | 1510 ft | 85 kts | 150° |
| 2026-04-17 12:02 | -41.56862 | 147.21033 | 1457 ft | 80 kts | 122° |
| 2026-04-17 12:02 | -41.56720 | 147.21730 | 1361 ft | 88 kts | 57° |
| 2026-04-17 12:03 | -41.56398 | 147.22412 | 1247 ft | 80 kts | 60° |
| 2026-04-17 12:03 | -41.55970 | 147.22363 | 999 ft | 71 kts | 323° |
| 2026-04-17 12:03 | -41.55553 | 147.22005 | 719 ft | 68 kts | 321° |
| 2026-04-17 12:03 | -41.55142 | 147.21649 | 625 ft | 70 kts | 322° |
| 2026-04-17 12:04 | -41.54819 | 147.21369 | 584 ft | 43 kts | 326° |
| 2026-04-17 12:04 | -41.54734 | 147.21182 | 585 ft | 16 kts | 227° |
| 2026-04-17 12:04 | -41.54755 | 147.21151 | 583 ft | 0 kts | 239° |
| 2026-04-17 12:05 | -41.54763 | 147.21135 | 582 ft | 10 kts | 238° |
| 2026-04-17 12:05 | -41.54762 | 147.21030 | 578 ft | 15 kts | 312° |
| 2026-04-17 12:05 | -41.54770 | 147.20996 | 576 ft | 0 kts | 142° |
| 2026-04-17 12:06 | -41.54770 | 147.20997 | 576 ft | 0 kts | 122° |
| 2026-04-17 12:07 | -41.54759 | 147.20995 | 577 ft | 0 kts | 146° |
| 2026-04-17 12:10 | -41.56043 | 147.22298 | 1309 ft | 92 kts | 334° |
| 2026-04-17 12:10 | -41.55662 | 147.22097 | 1442 ft | 44 kts | 332° |
| 2026-04-17 12:10 | -41.55433 | 147.22081 | 798 ft | 91 kts | 104° |
| 2026-04-17 12:10 | -41.55442 | 147.21929 | 657 ft | 55 kts | 325° |
| 2026-04-17 12:11 | -41.55173 | 147.21692 | 586 ft | 27 kts | 327° |
| 2026-04-17 12:11 | -41.56154 | 147.22335 | 1918 ft | 29 kts | 328° |
| 2026-04-17 12:11 | -41.55729 | 147.22115 | 1629 ft | 54 kts | 337° |
| 2026-04-17 12:12 | -41.55115 | 147.21794 | 1134 ft | 48 kts | 328° |
| 2026-04-17 12:12 | -41.55022 | 147.21738 | 681 ft | 0 kts | 113° |
| 2026-04-17 12:12 | -41.55901 | 147.21943 | 1197 ft | 3 kts | 205° |
| 2026-04-17 12:12 | -41.55443 | 147.21901 | 709 ft | 69 kts | 323° |
| 2026-04-17 12:13 | -41.55073 | 147.21593 | 596 ft | 55 kts | 324° |
| 2026-04-17 12:13 | -41.54813 | 147.21373 | 584 ft | 28 kts | 327° |
| 2026-04-17 12:13 | -41.55811 | 147.22206 | 851 ft | 82 kts | 329° |
| 2026-04-17 12:13 | -41.55346 | 147.21825 | 621 ft | 70 kts | 326° |
| 2026-04-17 12:14 | -41.55006 | 147.21538 | 589 ft | 47 kts | 324° |
| 2026-04-17 12:14 | -41.55917 | 147.22352 | 1129 ft | 46 kts | 322° |
| 2026-04-17 12:14 | -41.55563 | 147.22029 | 816 ft | 70 kts | 320° |
| 2026-04-17 12:14 | -41.55165 | 147.21665 | 593 ft | 62 kts | 323° |
| 2026-04-17 12:15 | -41.54906 | 147.21439 | 585 ft | 22 kts | 324° |
| 2026-04-17 12:15 | -41.56017 | 147.22414 | 1017 ft | 75 kts | 322° |
| 2026-04-17 12:15 | -41.55571 | 147.22029 | 723 ft | 76 kts | 326° |
| 2026-04-17 12:15 | -41.55181 | 147.21685 | 601 ft | 57 kts | 322° |
| 2026-04-17 12:16 | -41.55537 | 147.21958 | 964 ft | 0 kts | 327° |
| 2026-04-17 12:16 | -41.55294 | 147.21773 | 719 ft | 57 kts | 327° |
| 2026-04-17 12:16 | -41.54973 | 147.21508 | 585 ft | 44 kts | 325° |
| 2026-04-17 12:16 | -41.56087 | 147.22449 | 1111 ft | 0 kts | 323° |
| 2026-04-17 12:17 | -41.55847 | 147.22209 | 937 ft | 84 kts | 329° |
| 2026-04-17 12:17 | -41.55421 | 147.21880 | 676 ft | 57 kts | 324° |
| 2026-04-17 12:17 | -41.55138 | 147.21622 | 589 ft | 38 kts | 324° |
| 2026-04-17 12:17 | -41.55939 | 147.22354 | 1300 ft | 29 kts | 323° |
| 2026-04-17 12:18 | -41.55652 | 147.22065 | 719 ft | 73 kts | 337° |
| 2026-04-17 12:18 | -41.55261 | 147.21755 | 592 ft | 57 kts | 325° |
| 2026-04-17 12:18 | -41.55021 | 147.21535 | 585 ft | 26 kts | 332° |
| 2026-04-17 12:18 | -41.54946 | 147.21482 | 584 ft | 0 kts | 234° |